Time;durP1;ratioP1;P1;durP2;ratioP2;P2;SDS_P1;SDS_P2;PMS_P1;PMS_P2;Temp;Humidity;BMP_temperature;BMP_pressure;BME280_temperature;BME280_humidity;BME280_pressure;Samples;Min_cycle;Max_cycle;Signal;HPM_P1;HPM_P2
2022/10/18 00:00:17;;;;;;;0.90;0.90;;;;;;;;;;5092008;28;20024;-67
2022/10/18 00:02:43;;;;;;;0.20;0.20;;;;;;;;;;5092711;28;20024;-66
2022/10/18 00:05:08;;;;;;;0.10;0.10;;;;;;;;;;5091462;28;20024;-67
2022/10/18 00:07:34;;;;;;;0.30;0.30;;;;;;;;;;5091335;28;20047;-66
2022/10/18 00:09:59;;;;;;;1.05;1.05;;;;;;;;;;5093666;28;20534;-67
2022/10/18 00:12:24;;;;;;;1.35;0.82;;;;;;;;;;5093344;28;20073;-66
2022/10/18 00:14:50;;;;;;;0.20;0.20;;;;;;;;;;5075230;28;20394;-66
2022/10/18 00:17:15;;;;;;;0.10;0.10;;;;;;;;;;5091600;28;20476;-67
2022/10/18 00:19:41;;;;;;;0.20;0.20;;;;;;;;;;5093407;28;20367;-66
2022/10/18 00:22:06;;;;;;;0.20;0.20;;;;;;;;;;5092771;28;20028;-66
2022/10/18 00:24:32;;;;;;;0.10;0.10;;;;;;;;;;5093610;28;20032;-66
2022/10/18 00:26:57;;;;;;;3.20;3.05;;;;;;;;;;5093290;28;20044;-66
2022/10/18 00:29:22;;;;;;;0.20;0.20;;;;;;;;;;5091696;28;20028;-66
2022/10/18 00:31:48;;;;;;;0.20;0.20;;;;;;;;;;5091497;28;20115;-65
2022/10/18 00:34:14;;;;;;;0.10;0.10;;;;;;;;;;5091743;28;20020;-66
2022/10/18 00:36:40;;;;;;;0.10;0.10;;;;;;;;;;5091562;28;20043;-65
2022/10/18 00:39:07;;;;;;;0.10;0.10;;;;;;;;;;5092931;28;20467;-65
2022/10/18 00:41:33;;;;;;;0.28;0.28;;;;;;;;;;5091787;28;20024;-66
2022/10/18 00:43:58;;;;;;;0.25;0.25;;;;;;;;;;5093063;28;20024;-66
2022/10/18 00:46:25;;;;;;;0.13;0.13;;;;;;;;;;5096302;28;20069;-66
2022/10/18 00:48:50;;;;;;;0.45;0.45;;;;;;;;;;5096857;28;20024;-67
2022/10/18 00:51:18;;;;;;;0.20;0.20;;;;;;;;;;5096580;28;20024;-70
2022/10/18 00:53:44;;;;;;;0.10;0.10;;;;;;;;;;5095659;28;20033;-66
2022/10/18 00:56:10;;;;;;;0.20;0.20;;;;;;;;;;5095309;28;20024;-67
2022/10/18 00:58:35;;;;;;;3.60;1.45;;;;;;;;;;5078659;28;20030;-67
2022/10/18 01:01:01;;;;;;;0.43;0.43;;;;;;;;;;5093302;28;20028;-66
2022/10/18 01:03:26;;;;;;;0.30;0.30;;;;;;;;;;5096987;28;20020;-68
2022/10/18 01:05:52;;;;;;;2.42;2.28;;;;;;;;;;5096732;28;20017;-69
2022/10/18 01:08:30;;;;;;;0.20;0.20;;;;;;;;;;5096851;28;20417;-66
2022/10/18 01:11:25;;;;;;;0.10;0.10;;;;;;;;;;5095467;28;20032;-65
2022/10/18 01:14:00;;;;;;;0.20;0.20;;;;;;;;;;5076809;28;20043;-67
2022/10/18 01:16:43;;;;;;;0.10;0.10;;;;;;;;;;5096267;28;20042;-65
2022/10/18 01:19:15;;;;;;;0.10;0.10;;;;;;;;;;5096498;28;20052;-66
2022/10/18 01:21:49;;;;;;;0.10;0.10;;;;;;;;;;5094975;28;20036;-66
2022/10/18 01:24:20;;;;;;;0.20;0.20;;;;;;;;;;5094384;28;20586;-66
2022/10/18 01:27:21;;;;;;;0.10;0.10;;;;;;;;;;5094342;28;20065;-66
2022/10/18 01:29:46;;;;;;;0.10;0.10;;;;;;;;;;5031941;28;20038;-68
2022/10/18 01:32:15;;;;;;;0.10;0.10;;;;;;;;;;5080781;28;20089;-68
2022/10/18 01:34:42;;;;;;;0.10;0.10;;;;;;;;;;5092836;28;20030;-68
2022/10/18 01:37:10;;;;;;;0.10;0.10;;;;;;;;;;5093136;28;20383;-68
2022/10/18 01:39:37;;;;;;;1.13;0.93;;;;;;;;;;5094294;28;20028;-68
2022/10/18 01:42:05;;;;;;;0.28;0.28;;;;;;;;;;5094577;28;20024;-66
2022/10/18 01:44:31;;;;;;;0.50;0.50;;;;;;;;;;5095036;28;20085;-66
2022/10/18 01:46:58;;;;;;;0.63;0.63;;;;;;;;;;5073082;28;20040;-65
2022/10/18 01:49:23;;;;;;;1.13;1.08;;;;;;;;;;5074188;28;20031;-66
2022/10/18 01:51:49;;;;;;;0.10;0.10;;;;;;;;;;5075190;28;20028;-67
2022/10/18 01:54:16;;;;;;;0.10;0.10;;;;;;;;;;5074038;28;20074;-66
2022/10/18 01:56:55;;;;;;;1.92;1.75;;;;;;;;;;5073703;28;20553;-67
2022/10/18 01:59:23;;;;;;;0.20;0.20;;;;;;;;;;5074353;28;20442;-66
2022/10/18 02:02:06;;;;;;;4.28;3.92;;;;;;;;;;5074981;28;20032;-66
2022/10/18 02:04:31;;;;;;;0.17;0.17;;;;;;;;;;5073986;28;20028;-68
2022/10/18 02:07:01;;;;;;;0.30;0.30;;;;;;;;;;5075135;28;20507;-66
2022/10/18 02:09:27;;;;;;;;;;;;;;;;;;5075258;28;20060;-66
2022/10/18 02:11:53;;;;;;;0.10;0.10;;;;;;;;;;5074053;28;19947;-66
2022/10/18 02:14:22;;;;;;;0.52;0.52;;;;;;;;;;5057060;28;20035;-66
2022/10/18 02:16:55;;;;;;;2.70;2.50;;;;;;;;;;5075165;28;20024;-66
2022/10/18 02:19:21;;;;;;;0.22;0.22;;;;;;;;;;5073901;28;20168;-69
2022/10/18 02:21:47;;;;;;;0.10;0.10;;;;;;;;;;5074912;28;20107;-67
2022/10/18 02:24:14;;;;;;;0.17;0.17;;;;;;;;;;5074505;28;20107;-65
2022/10/18 02:26:39;;;;;;;0.20;0.20;;;;;;;;;;5075066;28;20025;-65
2022/10/18 02:29:06;;;;;;;0.10;0.10;;;;;;;;;;5072348;28;20071;-67
2022/10/18 02:31:53;;;;;;;0.10;0.10;;;;;;;;;;5075036;28;20541;-68
2022/10/18 02:34:20;;;;;;;0.10;0.10;;;;;;;;;;5073824;28;20350;-66
2022/10/18 02:36:52;;;;;;;0.10;0.10;;;;;;;;;;5056024;28;20033;-66
2022/10/18 02:39:22;;;;;;;0.20;0.20;;;;;;;;;;5072137;28;20023;-67
2022/10/18 02:41:48;;;;;;;0.10;0.10;;;;;;;;;;5073246;28;20031;-66
2022/10/18 02:44:13;;;;;;;0.10;0.10;;;;;;;;;;5072363;28;20020;-66
2022/10/18 02:46:39;;;;;;;1.08;0.82;;;;;;;;;;5056079;28;20449;-67
2022/10/18 02:49:04;;;;;;;0.10;0.10;;;;;;;;;;5074193;28;20028;-68
2022/10/18 02:51:30;;;;;;;0.17;0.17;;;;;;;;;;5073055;28;20042;-65
2022/10/18 02:53:59;;;;;;;0.10;0.10;;;;;;;;;;5074327;28;20024;-67
2022/10/18 02:56:27;;;;;;;0.22;0.22;;;;;;;;;;5074285;28;20126;-66
2022/10/18 02:58:53;;;;;;;0.20;0.20;;;;;;;;;;5051272;28;20087;-67
2022/10/18 03:01:18;;;;;;;0.10;0.10;;;;;;;;;;5036343;28;20052;-66
2022/10/18 03:03:44;;;;;;;0.10;0.10;;;;;;;;;;5058210;28;20024;-67
2022/10/18 03:06:09;;;;;;;0.55;0.55;;;;;;;;;;5052423;28;20032;-67
2022/10/18 03:08:35;;;;;;;0.10;0.10;;;;;;;;;;5068460;28;20028;-66
2022/10/18 03:11:00;;;;;;;0.28;0.28;;;;;;;;;;5069698;28;20027;-66
2022/10/18 03:13:26;;;;;;;2.38;1.85;;;;;;;;;;5070447;28;20101;-66
2022/10/18 03:15:51;;;;;;;0.20;0.20;;;;;;;;;;5070201;28;20180;-66
2022/10/18 03:18:17;;;;;;;1.00;1.00;;;;;;;;;;5067328;28;20396;-67
2022/10/18 03:20:42;;;;;;;0.10;0.10;;;;;;;;;;5068770;28;20521;-68
2022/10/18 03:23:08;;;;;;;0.20;0.20;;;;;;;;;;5068170;28;20089;-66
2022/10/18 03:25:34;;;;;;;0.10;0.10;;;;;;;;;;5069910;28;20480;-67
2022/10/18 03:27:59;;;;;;;0.10;0.10;;;;;;;;;;5063837;28;20064;-66
2022/10/18 03:30:25;;;;;;;0.10;0.10;;;;;;;;;;5054093;28;20031;-67
2022/10/18 03:32:50;;;;;;;0.10;0.10;;;;;;;;;;5090179;28;20032;-66
2022/10/18 03:35:16;;;;;;;0.10;0.10;;;;;;;;;;5088953;28;20020;-67
2022/10/18 03:37:41;;;;;;;2.85;2.70;;;;;;;;;;5090508;28;20028;-68
2022/10/18 03:40:07;;;;;;;0.13;0.13;;;;;;;;;;5090218;28;20028;-67
2022/10/18 03:42:33;;;;;;;0.10;0.10;;;;;;;;;;5089055;28;20056;-68
2022/10/18 03:44:58;;;;;;;0.30;0.30;;;;;;;;;;5085024;28;20147;-67
2022/10/18 03:47:24;;;;;;;0.20;0.20;;;;;;;;;;5087901;28;20123;-67
2022/10/18 03:49:49;;;;;;;0.10;0.10;;;;;;;;;;5084729;28;20063;-67
2022/10/18 03:52:15;;;;;;;1.13;1.08;;;;;;;;;;5066685;28;20478;-67
2022/10/18 03:54:40;;;;;;;1.27;1.27;;;;;;;;;;5067935;28;20594;-68
2022/10/18 03:57:06;;;;;;;0.10;0.10;;;;;;;;;;5069645;28;20524;-67
2022/10/18 03:59:31;;;;;;;0.47;0.47;;;;;;;;;;5057943;28;20028;-67
2022/10/18 04:01:57;;;;;;;0.10;0.10;;;;;;;;;;5050050;28;20033;-67
2022/10/18 04:04:22;;;;;;;0.45;0.45;;;;;;;;;;5032324;28;20498;-69
2022/10/18 04:06:48;;;;;;;0.10;0.10;;;;;;;;;;5049367;28;20041;-67
2022/10/18 04:09:13;;;;;;;0.20;0.20;;;;;;;;;;5048158;28;20061;-67
2022/10/18 04:11:39;;;;;;;0.10;0.10;;;;;;;;;;5049873;28;20029;-66
2022/10/18 04:14:04;;;;;;;0.10;0.10;;;;;;;;;;5049039;28;20469;-66
2022/10/18 04:16:29;;;;;;;0.10;0.10;;;;;;;;;;5073194;28;20020;-66
2022/10/18 04:18:55;;;;;;;0.20;0.20;;;;;;;;;;5089423;28;20222;-67
2022/10/18 04:21:20;;;;;;;0.10;0.10;;;;;;;;;;5093770;28;20085;-67
2022/10/18 04:23:46;;;;;;;0.10;0.10;;;;;;;;;;5092844;28;20024;-69
2022/10/18 04:26:12;;;;;;;0.10;0.10;;;;;;;;;;5075146;28;20105;-65
2022/10/18 04:28:38;;;;;;;0.15;0.15;;;;;;;;;;5091811;28;20067;-66
2022/10/18 04:31:04;;;;;;;0.10;0.10;;;;;;;;;;5080634;28;20025;-65
2022/10/18 04:33:30;;;;;;;0.10;0.10;;;;;;;;;;5078502;28;20039;-67
2022/10/18 04:35:55;;;;;;;0.10;0.10;;;;;;;;;;5062076;28;20095;-67
2022/10/18 04:38:21;;;;;;;0.10;0.10;;;;;;;;;;5072009;28;20459;-67
2022/10/18 04:40:46;;;;;;;0.80;0.80;;;;;;;;;;5074553;28;20107;-66
2022/10/18 04:43:12;;;;;;;0.10;0.10;;;;;;;;;;5093346;28;20024;-67
2022/10/18 04:45:37;;;;;;;0.10;0.10;;;;;;;;;;5083787;28;20074;-71
2022/10/18 04:48:03;;;;;;;0.10;0.10;;;;;;;;;;5075240;28;20097;-67
2022/10/18 04:50:29;;;;;;;0.10;0.10;;;;;;;;;;5089683;28;20026;-67
2022/10/18 04:52:55;;;;;;;0.13;0.13;;;;;;;;;;5082817;28;20032;-67
2022/10/18 04:55:21;;;;;;;0.32;0.32;;;;;;;;;;5069864;28;20025;-67
2022/10/18 04:57:46;;;;;;;0.10;0.10;;;;;;;;;;5053146;28;20464;-67
2022/10/18 05:00:12;;;;;;;0.10;0.10;;;;;;;;;;5058234;28;20085;-66
2022/10/18 05:02:37;;;;;;;0.10;0.10;;;;;;;;;;5071168;28;20025;-67
2022/10/18 05:05:03;;;;;;;0.75;0.75;;;;;;;;;;5084002;28;20024;-67
2022/10/18 05:07:28;;;;;;;0.15;0.15;;;;;;;;;;5072335;28;20477;-67
2022/10/18 05:09:54;;;;;;;0.25;0.25;;;;;;;;;;5065010;28;20044;-69
2022/10/18 05:12:19;;;;;;;4.47;2.22;;;;;;;;;;5048333;28;20098;-66
2022/10/18 05:14:45;;;;;;;1.48;1.38;;;;;;;;;;5048317;28;20506;-70
2022/10/18 05:17:10;;;;;;;0.50;0.50;;;;;;;;;;5049291;28;20035;-66
2022/10/18 05:19:36;;;;;;;1.00;1.00;;;;;;;;;;5050047;28;20041;-69
2022/10/18 05:22:01;;;;;;;0.30;0.30;;;;;;;;;;5050707;28;20369;-71
2022/10/18 05:24:27;;;;;;;0.10;0.10;;;;;;;;;;5052051;28;20036;-68
2022/10/18 05:26:52;;;;;;;9.18;6.50;;;;;;;;;;5050461;28;20428;-67
2022/10/18 05:29:17;;;;;;;0.10;0.10;;;;;;;;;;5051383;28;20045;-65
2022/10/18 05:31:43;;;;;;;2.47;2.38;;;;;;;;;;5049439;28;20028;-66
2022/10/18 05:34:08;;;;;;;0.20;0.20;;;;;;;;;;5049489;28;20033;-71
2022/10/18 05:36:33;;;;;;;0.22;0.22;;;;;;;;;;5051260;28;20029;-67
2022/10/18 05:39:02;;;;;;;0.43;0.43;;;;;;;;;;5050679;28;20122;-67
2022/10/18 05:41:28;;;;;;;0.10;0.10;;;;;;;;;;5050346;28;20395;-67
2022/10/18 05:43:54;;;;;;;0.10;0.10;;;;;;;;;;5049879;28;20033;-67
2022/10/18 05:46:19;;;;;;;0.10;0.10;;;;;;;;;;5049918;28;20025;-68
2022/10/18 05:48:48;;;;;;;0.10;0.10;;;;;;;;;;5051046;28;20419;-69
2022/10/18 05:51:13;;;;;;;0.10;0.10;;;;;;;;;;5056493;28;20638;-66
2022/10/18 05:53:39;;;;;;;0.10;0.10;;;;;;;;;;5066136;28;20056;-68
2022/10/18 05:56:05;;;;;;;0.10;0.10;;;;;;;;;;5068033;28;20119;-68
2022/10/18 05:58:31;;;;;;;1.92;1.85;;;;;;;;;;5065261;28;20162;-68
2022/10/18 06:01:00;;;;;;;0.22;0.22;;;;;;;;;;5058380;28;20107;-67
2022/10/18 06:03:26;;;;;;;0.10;0.10;;;;;;;;;;5056398;28;20029;-65
2022/10/18 06:05:52;;;;;;;0.30;0.30;;;;;;;;;;5059366;28;20540;-67
2022/10/18 06:08:17;;;;;;;0.10;0.10;;;;;;;;;;5049805;28;20132;-66
2022/10/18 06:10:43;;;;;;;0.20;0.20;;;;;;;;;;5049824;28;20024;-67
2022/10/18 06:13:08;;;;;;;0.10;0.10;;;;;;;;;;5051036;28;20025;-69
2022/10/18 06:15:33;;;;;;;0.10;0.10;;;;;;;;;;5051203;28;20638;-66
2022/10/18 06:17:59;;;;;;;0.25;0.25;;;;;;;;;;5067259;28;20053;-66
2022/10/18 06:20:24;;;;;;;5.97;5.45;;;;;;;;;;5051229;28;20029;-66
2022/10/18 06:22:53;;;;;;;0.50;0.50;;;;;;;;;;5068921;28;20048;-68
2022/10/18 06:25:18;;;;;;;1.13;1.13;;;;;;;;;;5066833;28;20452;-69
2022/10/18 06:27:44;;;;;;;0.40;0.40;;;;;;;;;;5071133;28;20112;-70
2022/10/18 06:30:10;;;;;;;0.20;0.20;;;;;;;;;;5052018;28;20075;-68
2022/10/18 06:32:35;;;;;;;0.65;0.65;;;;;;;;;;5051304;28;20972;-69
2022/10/18 06:35:00;;;;;;;0.50;0.50;;;;;;;;;;5050994;28;20071;-69
2022/10/18 06:37:30;;;;;;;0.10;0.10;;;;;;;;;;5050753;28;20063;-68
2022/10/18 06:39:56;;;;;;;0.20;0.20;;;;;;;;;;5051051;28;20040;-72
2022/10/18 06:42:21;;;;;;;0.20;0.20;;;;;;;;;;5050224;28;20025;-69
2022/10/18 06:44:47;;;;;;;0.15;0.15;;;;;;;;;;5049661;28;20040;-69
2022/10/18 06:47:12;;;;;;;0.10;0.10;;;;;;;;;;5060687;28;20033;-68
2022/10/18 06:49:38;;;;;;;0.20;0.20;;;;;;;;;;5053227;28;20604;-68
2022/10/18 06:52:04;;;;;;;0.20;0.20;;;;;;;;;;5048014;28;20029;-69
2022/10/18 06:54:30;;;;;;;0.10;0.10;;;;;;;;;;5057209;28;20029;-69
2022/10/18 06:56:56;;;;;;;0.20;0.20;;;;;;;;;;5058189;28;20028;-69
2022/10/18 06:59:22;;;;;;;0.20;0.20;;;;;;;;;;5060498;28;20032;-69
2022/10/18 07:01:47;;;;;;;0.17;0.17;;;;;;;;;;5064894;28;20032;-68
2022/10/18 07:04:13;;;;;;;0.55;0.55;;;;;;;;;;5063466;28;20115;-69
2022/10/18 07:06:39;;;;;;;0.20;0.20;;;;;;;;;;5053942;28;20075;-69
2022/10/18 07:09:04;;;;;;;0.10;0.10;;;;;;;;;;5045897;28;20033;-71
2022/10/18 07:11:30;;;;;;;0.10;0.10;;;;;;;;;;5046460;28;20112;-72
2022/10/18 07:14:03;;;;;;;0.20;0.20;;;;;;;;;;5051132;28;20013;-69
2022/10/18 07:16:29;;;;;;;0.10;0.10;;;;;;;;;;5051305;28;20032;-70
2022/10/18 07:18:54;;;;;;;0.75;0.60;;;;;;;;;;5047752;28;20378;-69
2022/10/18 07:21:21;;;;;;;0.10;0.10;;;;;;;;;;5049586;28;20055;-68
2022/10/18 07:23:47;;;;;;;0.28;0.28;;;;;;;;;;5058037;28;20411;-69
2022/10/18 07:26:23;;;;;;;0.20;0.20;;;;;;;;;;5054272;28;20032;-68
2022/10/18 07:28:54;;;;;;;0.73;0.73;;;;;;;;;;5055408;28;20033;-68
2022/10/18 07:31:19;;;;;;;0.20;0.20;;;;;;;;;;5031566;28;20480;-68
2022/10/18 07:33:45;;;;;;;0.20;0.20;;;;;;;;;;5056652;28;20021;-68
2022/10/18 07:36:11;;;;;;;0.10;0.10;;;;;;;;;;5052605;28;20040;-68
2022/10/18 07:38:36;;;;;;;0.10;0.10;;;;;;;;;;5061739;28;20032;-70
2022/10/18 07:41:03;;;;;;;0.20;0.20;;;;;;;;;;5069290;28;20040;-70
2022/10/18 07:43:29;;;;;;;0.20;0.20;;;;;;;;;;5051767;28;20476;-69
2022/10/18 07:45:55;;;;;;;0.20;0.20;;;;;;;;;;5055506;28;20033;-69
2022/10/18 07:48:21;;;;;;;0.20;0.20;;;;;;;;;;5048554;28;20041;-68
2022/10/18 07:50:47;;;;;;;0.20;0.20;;;;;;;;;;5049114;28;20112;-68
2022/10/18 07:53:12;;;;;;;5.38;1.00;;;;;;;;;;5053741;28;20021;-68
2022/10/18 07:55:38;;;;;;;0.25;0.25;;;;;;;;;;5066253;28;20028;-68
2022/10/18 07:58:03;;;;;;;0.30;0.30;;;;;;;;;;5050646;28;20029;-68
2022/10/18 08:00:29;;;;;;;0.20;0.20;;;;;;;;;;5051202;28;20455;-68
2022/10/18 08:02:55;;;;;;;0.20;0.20;;;;;;;;;;5050655;28;20035;-69
2022/10/18 08:05:21;;;;;;;1.23;1.05;;;;;;;;;;5050134;28;20029;-68
2022/10/18 08:07:46;;;;;;;0.50;0.47;;;;;;;;;;5045435;28;20059;-68
2022/10/18 08:10:12;;;;;;;1.17;1.00;;;;;;;;;;5053163;28;20029;-68
2022/10/18 08:12:38;;;;;;;0.30;0.30;;;;;;;;;;5054087;28;20043;-68
2022/10/18 08:15:03;;;;;;;2.10;1.25;;;;;;;;;;5049559;28;20032;-70
2022/10/18 08:17:29;;;;;;;2.40;1.73;;;;;;;;;;5047166;28;20091;-69
2022/10/18 08:19:54;;;;;;;1.98;1.05;;;;;;;;;;5046112;28;20090;-70
2022/10/18 08:22:21;;;;;;;0.17;0.17;;;;;;;;;;5053361;28;20063;-69
2022/10/18 08:24:47;;;;;;;0.20;0.20;;;;;;;;;;5055188;28;20093;-69
2022/10/18 08:27:13;;;;;;;0.30;0.30;;;;;;;;;;5066736;28;20028;-68
2022/10/18 08:29:38;;;;;;;0.50;0.50;;;;;;;;;;5069960;28;20112;-70
2022/10/18 08:32:04;;;;;;;1.08;0.70;;;;;;;;;;5057530;28;20370;-68
2022/10/18 08:34:30;;;;;;;0.22;0.22;;;;;;;;;;5062071;28;20122;-69
2022/10/18 08:36:55;;;;;;;0.20;0.20;;;;;;;;;;5062904;28;20033;-70
2022/10/18 08:39:21;;;;;;;1.25;1.15;;;;;;;;;;5066710;28;20127;-71
2022/10/18 08:42:00;;;;;;;3.70;2.78;;;;;;;;;;5066101;28;20025;-85
2022/10/18 08:44:25;;;;;;;;;;;;;;;;;;5065726;28;20025;-72
2022/10/18 08:46:54;;;;;;;1.67;1.42;;;;;;;;;;5064469;28;19923;-72
2022/10/18 08:49:22;;;;;;;0.30;0.30;;;;;;;;;;5066495;28;20051;-72
2022/10/18 08:51:50;;;;;;;0.20;0.20;;;;;;;;;;5065812;28;20031;-72
2022/10/18 08:54:21;;;;;;;0.25;0.25;;;;;;;;;;5064826;28;20660;-73
2022/10/18 08:56:53;;;;;;;0.25;0.25;;;;;;;;;;5065143;28;20052;-72
2022/10/18 08:59:18;;;;;;;0.20;0.20;;;;;;;;;;5065301;28;20654;-72
2022/10/18 09:01:44;;;;;;;0.30;0.30;;;;;;;;;;5064610;28;20048;-73
2022/10/18 09:04:12;;;;;;;0.20;0.20;;;;;;;;;;5065573;28;20031;-73
2022/10/18 09:06:43;;;;;;;0.20;0.20;;;;;;;;;;5065332;28;20483;-72
2022/10/18 09:09:18;;;;;;;0.25;0.25;;;;;;;;;;5070131;28;20048;-73
2022/10/18 09:11:59;;;;;;;0.30;0.30;;;;;;;;;;5071303;28;20024;-72
2022/10/18 09:14:36;;;;;;;0.20;0.20;;;;;;;;;;5071557;28;20036;-74
2022/10/18 09:17:07;;;;;;;0.20;0.20;;;;;;;;;;5071989;28;20329;-73
2022/10/18 09:19:36;;;;;;;0.20;0.20;;;;;;;;;;5070970;28;20119;-72
2022/10/18 09:22:07;;;;;;;0.20;0.20;;;;;;;;;;5072345;28;20047;-73
2022/10/18 09:24:41;;;;;;;0.57;0.57;;;;;;;;;;5072259;28;20392;-72
2022/10/18 09:27:17;;;;;;;1.95;1.23;;;;;;;;;;5070716;28;20119;-73
2022/10/18 09:30:01;;;;;;;0.20;0.20;;;;;;;;;;5071649;28;20032;-73
2022/10/18 09:32:32;;;;;;;0.40;0.40;;;;;;;;;;5071880;28;20488;-71
2022/10/18 09:34:58;;;;;;;0.30;0.30;;;;;;;;;;5071738;28;20032;-72
2022/10/18 09:37:24;;;;;;;0.30;0.30;;;;;;;;;;5071702;28;20032;-72
2022/10/18 09:39:50;;;;;;;0.75;0.63;;;;;;;;;;5071626;28;20392;-72
2022/10/18 09:42:25;;;;;;;0.30;0.30;;;;;;;;;;5071191;28;20425;-71
2022/10/18 09:44:53;;;;;;;0.40;0.40;;;;;;;;;;5071632;28;20032;-73
2022/10/18 09:47:21;;;;;;;0.30;0.30;;;;;;;;;;5071549;28;20032;-72
2022/10/18 09:49:51;;;;;;;1.60;1.27;;;;;;;;;;5071480;28;20024;-72
2022/10/18 09:52:22;;;;;;;0.40;0.40;;;;;;;;;;5071094;28;20070;-71
2022/10/18 09:55:00;;;;;;;1.00;0.95;;;;;;;;;;5070870;28;20029;-72
2022/10/18 09:57:25;;;;;;;0.30;0.30;;;;;;;;;;5071894;28;20032;-72
2022/10/18 09:59:51;;;;;;;1.55;1.20;;;;;;;;;;5071435;28;20107;-72
2022/10/18 10:02:19;;;;;;;0.20;0.20;;;;;;;;;;5071346;28;20028;-72
2022/10/18 10:04:45;;;;;;;0.57;0.50;;;;;;;;;;5070866;28;20024;-72
2022/10/18 10:07:12;;;;;;;0.65;0.55;;;;;;;;;;5069935;28;20724;-72
2022/10/18 10:09:48;;;;;;;1.05;0.85;;;;;;;;;;5070838;28;20078;-73
2022/10/18 10:12:30;;;;;;;1.20;0.90;;;;;;;;;;5070823;28;20131;-72
2022/10/18 10:15:06;;;;;;;0.28;0.28;;;;;;;;;;5071288;28;20051;-72
2022/10/18 10:17:32;;;;;;;1.42;1.42;;;;;;;;;;5070966;28;20049;-73
2022/10/18 10:19:59;;;;;;;0.40;0.40;;;;;;;;;;5070607;28;20035;-73
2022/10/18 10:22:45;;;;;;;1.13;0.93;;;;;;;;;;5070853;28;20041;-72
2022/10/18 10:25:31;;;;;;;2.53;1.63;;;;;;;;;;5070791;28;20078;-72
2022/10/18 10:28:02;;;;;;;0.20;0.20;;;;;;;;;;5070859;28;20078;-72
2022/10/18 10:30:29;;;;;;;1.20;1.10;;;;;;;;;;5070362;28;20480;-73
2022/10/18 10:32:55;;;;;;;0.20;0.20;;;;;;;;;;5070419;28;20029;-72
2022/10/18 10:35:34;;;;;;;1.55;1.13;;;;;;;;;;5070494;28;20043;-72
2022/10/18 10:38:00;;;;;;;0.20;0.20;;;;;;;;;;5070591;28;20028;-72
2022/10/18 10:40:27;;;;;;;0.52;0.52;;;;;;;;;;5070490;28;20054;-72
2022/10/18 10:42:55;;;;;;;0.85;0.77;;;;;;;;;;5068462;28;20052;-72
2022/10/18 10:45:22;;;;;;;0.30;0.30;;;;;;;;;;5070359;28;20112;-72
2022/10/18 10:47:48;;;;;;;1.25;1.15;;;;;;;;;;5070399;28;20048;-71
2022/10/18 10:50:21;;;;;;;1.08;0.77;;;;;;;;;;5070417;28;20380;-71
2022/10/18 10:52:47;;;;;;;0.63;0.63;;;;;;;;;;5070097;28;20032;-71
2022/10/18 10:55:21;;;;;;;0.60;0.60;;;;;;;;;;5070229;28;20028;-72
2022/10/18 10:57:47;;;;;;;1.27;1.05;;;;;;;;;;5069554;28;20060;-71
2022/10/18 11:00:31;;;;;;;0.30;0.30;;;;;;;;;;5070505;28;20499;-74
2022/10/18 11:03:11;;;;;;;0.30;0.30;;;;;;;;;;5069779;28;20033;-73
2022/10/18 11:05:46;;;;;;;0.30;0.30;;;;;;;;;;5068674;28;20033;-73
2022/10/18 11:08:14;;;;;;;0.40;0.40;;;;;;;;;;5067510;28;20581;-73
2022/10/18 11:10:53;;;;;;;3.20;1.48;;;;;;;;;;5067948;28;20028;-74
2022/10/18 11:13:31;;;;;;;0.28;0.28;;;;;;;;;;5068084;28;20043;-74
2022/10/18 11:16:06;;;;;;;2.20;1.98;;;;;;;;;;5067817;28;20411;-72
2022/10/18 11:18:33;;;;;;;0.30;0.30;;;;;;;;;;5065717;28;20059;-73
2022/10/18 11:21:09;;;;;;;4.78;2.30;;;;;;;;;;5067538;28;20396;-73
2022/10/18 11:23:36;;;;;;;1.38;1.20;;;;;;;;;;5066448;28;20436;-73
2022/10/18 11:26:11;;;;;;;1.75;1.40;;;;;;;;;;5067636;28;20079;-74
2022/10/18 11:28:39;;;;;;;0.70;0.68;;;;;;;;;;5067211;28;20524;-73
2022/10/18 11:31:11;;;;;;;1.20;0.73;;;;;;;;;;5057824;28;20029;-72
2022/10/18 11:33:39;;;;;;;0.25;0.25;;;;;;;;;;5046584;28;20035;-74
2022/10/18 11:36:09;;;;;;;0.30;0.30;;;;;;;;;;5046100;28;20067;-74
2022/10/18 11:38:46;;;;;;;0.20;0.20;;;;;;;;;;5052172;28;20448;-73
2022/10/18 11:41:33;;;;;;;0.20;0.20;;;;;;;;;;5053363;28;20040;-73
2022/10/18 11:44:00;;;;;;;0.22;0.22;;;;;;;;;;5057232;28;20094;-73
2022/10/18 11:46:46;;;;;;;0.47;0.47;;;;;;;;;;5053234;28;20388;-73
2022/10/18 11:49:30;;;;;;;0.50;0.50;;;;;;;;;;5054621;28;20052;-72
2022/10/18 11:52:01;;;;;;;0.70;0.70;;;;;;;;;;5053007;28;20037;-73
2022/10/18 11:54:33;;;;;;;0.88;0.85;;;;;;;;;;5046977;28;20143;-73
2022/10/18 11:57:04;;;;;;;0.20;0.20;;;;;;;;;;5047212;28;20639;-72
2022/10/18 11:59:37;;;;;;;0.82;0.80;;;;;;;;;;5049831;28;20269;-73
2022/10/18 12:02:17;;;;;;;5.22;3.15;;;;;;;;;;5065057;28;20040;-73
2022/10/18 12:04:46;;;;;;;3.83;1.67;;;;;;;;;;5055757;28;20049;-73
2022/10/18 12:07:14;;;;;;;5.20;2.90;;;;;;;;;;5046497;28;20036;-73
2022/10/18 12:09:44;;;;;;;4.05;2.33;;;;;;;;;;5062847;28;20017;-73
2022/10/18 12:12:18;;;;;;;2.92;2.33;;;;;;;;;;5057339;28;20024;-72
2022/10/18 12:14:44;;;;;;;3.17;1.48;;;;;;;;;;5053267;28;20025;-73
2022/10/18 12:17:15;;;;;;;6.13;3.90;;;;;;;;;;5065450;28;20029;-73
2022/10/18 12:19:41;;;;;;;3.53;1.90;;;;;;;;;;5055537;28;20469;-72
2022/10/18 12:22:16;;;;;;;2.95;1.23;;;;;;;;;;5051932;28;20037;-73
2022/10/18 12:24:41;;;;;;;10.40;2.65;;;;;;;;;;5050379;28;20033;-73
2022/10/18 12:27:10;;;;;;;8.00;2.17;;;;;;;;;;5044717;28;20039;-73
2022/10/18 12:29:41;;;;;;;9.98;2.75;;;;;;;;;;5044234;28;20527;-72
2022/10/18 12:32:12;;;;;;;7.85;3.53;;;;;;;;;;5044945;28;20069;-74
2022/10/18 12:34:44;;;;;;;3.08;1.90;;;;;;;;;;5046027;28;20041;-73
2022/10/18 12:37:12;;;;;;;3.08;2.22;;;;;;;;;;5045679;28;20064;-74
2022/10/18 12:39:40;;;;;;;4.35;2.70;;;;;;;;;;5044550;28;20099;-74
2022/10/18 12:42:15;;;;;;;5.35;2.55;;;;;;;;;;5047511;28;20059;-74
2022/10/18 12:44:41;;;;;;;6.55;1.83;;;;;;;;;;5048189;28;20064;-74
2022/10/18 12:47:19;;;;;;;3.15;2.40;;;;;;;;;;5046693;28;20072;-73
2022/10/18 12:49:53;;;;;;;3.50;1.88;;;;;;;;;;5029403;28;20029;-74
2022/10/18 12:52:21;;;;;;;7.07;2.65;;;;;;;;;;5046008;28;20033;-73
2022/10/18 12:55:04;;;;;;;8.77;1.33;;;;;;;;;;5047579;28;20021;-74
2022/10/18 12:57:48;;;;;;;1.35;0.90;;;;;;;;;;5048931;28;20021;-74
2022/10/18 13:00:28;;;;;;;5.47;2.47;;;;;;;;;;5067303;28;20032;-72
2022/10/18 13:03:16;;;;;;;7.97;2.58;;;;;;;;;;5069618;28;20031;-73
2022/10/18 13:05:51;;;;;;;3.37;2.27;;;;;;;;;;5069895;28;20424;-73
2022/10/18 13:08:25;;;;;;;4.47;2.45;;;;;;;;;;5069497;28;20055;-73
2022/10/18 13:11:11;;;;;;;5.50;2.95;;;;;;;;;;5069990;28;20043;-73
2022/10/18 13:13:51;;;;;;;2.97;1.80;;;;;;;;;;5070077;28;20043;-73
2022/10/18 13:16:23;;;;;;;5.45;3.35;;;;;;;;;;5070443;28;20035;-72
2022/10/18 13:18:48;;;;;;;2.50;1.83;;;;;;;;;;5068993;28;20052;-73
2022/10/18 13:21:34;;;;;;;2.53;1.40;;;;;;;;;;5070083;28;20025;-72
2022/10/18 13:24:17;;;;;;;1.60;0.85;;;;;;;;;;5059184;28;20306;-73
2022/10/18 13:27:05;;;;;;;2.30;1.52;;;;;;;;;;5070164;28;20471;-73
2022/10/18 13:29:49;;;;;;;1.35;0.98;;;;;;;;;;5069850;28;20444;-72
2022/10/18 13:32:33;;;;;;;6.78;3.67;;;;;;;;;;5069606;28;20396;-73
2022/10/18 13:34:58;;;;;;;6.05;3.83;;;;;;;;;;5069952;28;20064;-74
2022/10/18 13:37:24;;;;;;;4.57;2.53;;;;;;;;;;5069884;28;20059;-73
2022/10/18 13:39:51;;;;;;;9.60;2.00;;;;;;;;;;5069459;28;20028;-73
2022/10/18 13:42:17;;;;;;;2.45;1.38;;;;;;;;;;5068876;28;20479;-74
2022/10/18 13:44:44;;;;;;;5.47;2.03;;;;;;;;;;5069655;28;20082;-73
2022/10/18 13:47:09;;;;;;;3.92;2.17;;;;;;;;;;5068227;28;20040;-74
2022/10/18 13:49:38;;;;;;;3.55;2.63;;;;;;;;;;5069682;28;20024;-74
2022/10/18 13:52:15;;;;;;;5.40;3.25;;;;;;;;;;5069313;28;20048;-73
2022/10/18 13:55:05;;;;;;;4.10;1.88;;;;;;;;;;5068904;28;20621;-74
2022/10/18 13:57:49;;;;;;;2.38;2.05;;;;;;;;;;5069425;28;20032;-74
2022/10/18 14:00:17;;;;;;;2.30;1.65;;;;;;;;;;5069425;28;20060;-72
2022/10/18 14:02:46;;;;;;;4.77;2.37;;;;;;;;;;5069416;28;20050;-72
2022/10/18 14:05:24;;;;;;;7.03;2.10;;;;;;;;;;5069310;28;20040;-72
2022/10/18 14:07:50;;;;;;;5.20;1.52;;;;;;;;;;5069324;28;20051;-73
2022/10/18 14:10:24;;;;;;;4.07;2.58;;;;;;;;;;5069218;28;20021;-74
2022/10/18 14:12:53;;;;;;;7.10;2.05;;;;;;;;;;5069038;28;20032;-74
2022/10/18 14:15:18;;;;;;;3.17;2.40;;;;;;;;;;5069371;28;20032;-74
2022/10/18 14:17:49;;;;;;;1.55;1.00;;;;;;;;;;5068733;28;20098;-74
2022/10/18 14:20:21;;;;;;;7.47;3.72;;;;;;;;;;5069678;28;20480;-73
2022/10/18 14:23:01;;;;;;;6.95;3.83;;;;;;;;;;5068700;28;20041;-73
2022/10/18 14:25:31;;;;;;;4.57;2.97;;;;;;;;;;5068963;28;20111;-73
2022/10/18 14:28:13;;;;;;;1.65;1.10;;;;;;;;;;5068850;28;20044;-74
2022/10/18 14:30:58;;;;;;;1.85;1.60;;;;;;;;;;5068704;28;20027;-72
2022/10/18 14:33:23;;;;;;;4.53;2.53;;;;;;;;;;5068726;28;20060;-72
2022/10/18 14:35:57;;;;;;;1.42;1.00;;;;;;;;;;5068893;28;20433;-72
2022/10/18 14:38:23;;;;;;;4.00;2.17;;;;;;;;;;5068593;28;20056;-71
2022/10/18 14:40:48;;;;;;;8.30;3.13;;;;;;;;;;5068210;28;20607;-73
2022/10/18 14:43:17;;;;;;;6.35;1.65;;;;;;;;;;5067893;28;20107;-73
2022/10/18 14:45:43;;;;;;;5.10;2.50;;;;;;;;;;5068650;28;20052;-73
2022/10/18 14:48:15;;;;;;;3.75;2.00;;;;;;;;;;5068695;28;20388;-73
2022/10/18 14:50:42;;;;;;;3.03;1.27;;;;;;;;;;5068223;28;20158;-72
2022/10/18 14:53:12;;;;;;;2.35;1.55;;;;;;;;;;5068454;28;20085;-74